Time;durP1;ratioP1;P1;durP2;ratioP2;P2;SDS_P1;SDS_P2;PMS_P1;PMS_P2;Temp;Humidity;BMP_temperature;BMP_pressure;BME280_temperature;BME280_humidity;BME280_pressure;Samples;Min_cycle;Max_cycle;Signal;HPM_P1;HPM_P2
2024/04/10 00:02:30;;;;;;;1999.90;999.90;;;;;;;9.51;89.52;101854.19;11209277;26;19999;-67
2024/04/10 00:07:33;;;;;;;1999.90;999.90;;;;;;;9.28;89.61;101858.50;11209156;26;20365;-67
2024/04/10 00:12:35;;;;;;;1999.90;999.90;;;;;;;9.51;90.30;101858.59;11208593;26;20018;-67
2024/04/10 00:17:38;;;;;;;1999.90;999.90;;;;;;;9.40;90.21;101875.50;11208868;26;19996;-67
2024/04/10 00:22:40;;;;;;;1999.90;999.90;;;;;;;9.16;90.71;101882.41;11208437;26;19999;-67
2024/04/10 00:27:46;;;;;;;1999.90;999.90;;;;;;;9.33;91.86;101888.84;11209154;26;20502;-67
2024/04/10 00:32:48;;;;;;;1999.90;999.90;;;;;;;9.05;90.61;101895.00;11147978;26;20354;-67
2024/04/10 00:37:51;;;;;;;1999.90;999.90;;;;;;;9.23;93.82;101904.84;11208825;26;20015;-67
2024/04/10 00:42:53;;;;;;;1999.90;999.90;;;;;;;9.05;94.37;101908.06;11207755;26;20003;-67
2024/04/10 00:47:56;;;;;;;1999.90;999.90;;;;;;;9.04;93.97;101917.66;11207306;26;20010;-67
2024/04/10 00:52:59;;;;;;;1999.90;999.90;;;;;;;8.79;94.30;101922.81;11209858;26;20446;-67
2024/04/10 00:58:01;;;;;;;1999.90;999.90;;;;;;;8.72;95.95;101927.41;11184206;26;20013;-67
2024/04/10 01:03:05;;;;;;;1999.90;999.90;;;;;;;8.67;96.05;101931.91;11214818;26;20015;-67
2024/04/10 01:08:08;;;;;;;1999.90;999.90;;;;;;;8.66;98.99;101943.25;11214792;26;20450;-67
2024/04/10 01:13:10;;;;;;;1999.90;999.90;;;;;;;8.65;97.75;101946.75;11214387;26;20031;-67
2024/04/10 01:18:16;;;;;;;1999.90;999.90;;;;;;;8.44;98.08;101945.69;11214126;26;20000;-67
2024/04/10 01:23:20;;;;;;;1999.90;999.90;;;;;;;8.71;97.85;101954.41;11183209;26;20010;-67
2024/04/10 01:28:23;;;;;;;1999.90;999.90;;;;;;;8.52;97.29;101956.75;11182809;26;20011;-67
2024/04/10 01:33:25;;;;;;;1999.90;999.90;;;;;;;8.49;98.57;101963.78;11213651;26;20035;-67
2024/04/10 01:38:28;;;;;;;1999.90;999.90;;;;;;;8.29;99.40;101969.59;11213241;26;20018;-67
2024/04/10 01:43:31;;;;;;;1999.90;999.90;;;;;;;8.51;99.07;101982.88;11213829;26;20000;-67
2024/04/10 01:48:34;;;;;;;1999.90;999.90;;;;;;;8.60;98.76;101992.19;11212989;26;20013;-67
2024/04/10 01:53:36;;;;;;;1999.90;999.90;;;;;;;8.49;98.75;102008.16;11182121;26;20590;-67
2024/04/10 01:58:39;;;;;;;1999.90;999.90;;;;;;;8.50;100.00;102022.94;11213010;26;20496;-67
2024/04/10 02:03:42;;;;;;;1999.90;999.90;;;;;;;8.61;100.00;102020.88;11212208;26;20011;-67
2024/04/10 02:08:45;;;;;;;1999.90;999.90;;;;;;;8.60;100.00;102032.19;11213122;26;20007;-67
2024/04/10 02:13:47;;;;;;;1999.90;999.90;;;;;;;8.72;100.00;102034.47;11212559;26;19999;-67
2024/04/10 02:18:50;;;;;;;1999.90;999.90;;;;;;;8.74;99.12;102044.84;11212557;26;20014;-67
2024/04/10 02:23:55;;;;;;;1999.90;999.90;;;;;;;8.70;100.00;102051.06;11211978;26;20010;-67
2024/04/10 02:28:58;;;;;;;1999.90;999.90;;;;;;;8.62;99.74;102066.09;11212168;26;20458;-67
2024/04/10 02:34:00;;;;;;;1999.90;999.90;;;;;;;8.82;100.00;102065.50;11212343;26;20429;-67
2024/04/10 02:39:03;;;;;;;1999.90;999.90;;;;;;;8.63;100.00;102078.25;11212356;26;20018;-67
2024/04/10 02:44:05;;;;;;;1999.90;999.90;;;;;;;8.51;100.00;102095.97;11211977;26;20350;-67
2024/04/10 02:49:08;;;;;;;1999.90;999.90;;;;;;;8.84;100.00;102100.25;11211813;26;20076;-67
2024/04/10 02:54:11;;;;;;;1999.90;999.90;;;;;;;8.83;100.00;102106.41;11211531;26;20346;-67
2024/04/10 02:59:13;;;;;;;1999.90;999.90;;;;;;;8.63;100.00;102117.41;11211964;26;20014;-67
2024/04/10 03:04:16;;;;;;;1999.90;999.90;;;;;;;8.60;100.00;102123.56;11211054;26;20053;-67
2024/04/10 03:09:21;;;;;;;1999.90;999.90;;;;;;;8.89;100.00;102134.94;11211640;26;20000;-67
2024/04/10 03:14:23;;;;;;;1999.90;999.90;;;;;;;8.61;100.00;102145.31;11209602;26;20007;-67
2024/04/10 03:19:26;;;;;;;1999.90;999.90;;;;;;;8.61;100.00;102150.53;11210904;26;20452;-67
2024/04/10 03:24:28;;;;;;;1999.90;999.90;;;;;;;8.65;100.00;102158.25;11179400;26;19999;-67
2024/04/10 03:29:31;;;;;;;1999.90;999.90;;;;;;;8.71;100.00;102165.91;11151236;26;20011;-67
2024/04/10 03:34:34;;;;;;;1999.90;999.90;;;;;;;8.60;100.00;102174.94;11210387;26;19999;-67
2024/04/10 03:39:36;;;;;;;1999.90;999.90;;;;;;;8.60;100.00;102174.94;11209723;26;20443;-67
2024/04/10 03:44:39;;;;;;;1999.90;999.90;;;;;;;8.53;100.00;102187.28;11210108;26;20072;-67
2024/04/10 03:49:41;;;;;;;1999.90;999.90;;;;;;;8.65;100.00;102197.41;11210192;26;20011;-67
2024/04/10 03:54:44;;;;;;;1999.90;999.90;;;;;;;8.78;100.00;102205.78;11217263;21;20008;-65
2024/04/10 03:59:46;;;;;;;1999.90;999.90;;;;;;;8.61;100.00;102221.00;11178538;26;20010;-66
2024/04/10 04:04:49;;;;;;;1999.90;999.90;;;;;;;8.69;100.00;102222.53;11178666;26;19999;-66
2024/04/10 04:09:52;;;;;;;1999.90;999.90;;;;;;;8.45;100.00;102228.41;11209139;26;20420;-66
2024/04/10 04:14:54;;;;;;;1999.90;999.90;;;;;;;8.51;100.00;102238.69;11208744;26;20014;-66
2024/04/10 04:19:57;;;;;;;1999.90;999.90;;;;;;;8.71;100.00;102246.84;11208702;26;19999;-66
2024/04/10 04:24:59;;;;;;;1999.90;999.90;;;;;;;8.72;100.00;102255.53;11208537;26;19999;-66
2024/04/10 04:30:02;;;;;;;1999.90;999.90;;;;;;;8.69;100.00;102272.16;11215536;26;20000;-66
2024/04/10 04:35:04;;;;;;;1999.90;999.90;;;;;;;8.61;100.00;102284.56;11215814;26;19999;-66
2024/04/10 04:40:08;;;;;;;1999.90;999.90;;;;;;;8.54;100.00;102291.69;11215242;26;20073;-66
2024/04/10 04:45:11;;;;;;;1999.90;999.90;;;;;;;8.90;100.00;102309.06;11215501;26;20015;-66
2024/04/10 04:50:15;;;;;;;1999.90;999.90;;;;;;;8.99;100.00;102321.00;11184167;26;20000;-66
2024/04/10 04:55:18;;;;;;;1999.90;999.90;;;;;;;8.84;100.00;102324.88;11214953;26;20016;-66
2024/04/10 05:00:22;;;;;;;1999.90;999.90;;;;;;;8.93;100.00;102332.50;11183929;26;20031;-66
2024/04/10 05:05:24;;;;;;;1999.90;999.90;;;;;;;9.04;100.00;102343.50;11184054;26;20004;-67
2024/04/10 05:10:27;;;;;;;1999.90;999.90;;;;;;;8.95;100.00;102350.72;11214594;26;19999;-66
2024/04/10 05:15:29;;;;;;;1999.90;999.90;;;;;;;8.99;100.00;102355.81;11214148;26;20349;-66
2024/04/10 05:20:32;;;;;;;1999.90;999.90;;;;;;;9.04;100.00;102359.16;11214243;26;20003;-66
2024/04/10 05:25:34;;;;;;;1999.90;999.90;;;;;;;8.84;100.00;102366.66;11214166;26;20209;-66
2024/04/10 05:30:37;;;;;;;1999.90;999.90;;;;;;;8.89;100.00;102376.13;11214778;26;20008;-66
2024/04/10 05:35:39;;;;;;;1999.90;999.90;;;;;;;8.87;100.00;102387.50;11213835;26;19999;-66
2024/04/10 05:40:42;;;;;;;1999.90;999.90;;;;;;;8.72;100.00;102399.16;11213131;26;20014;-66
2024/04/10 05:45:44;;;;;;;1999.90;999.90;;;;;;;8.71;100.00;102416.59;11213544;26;20384;-66
2024/04/10 05:50:47;;;;;;;1999.90;999.90;;;;;;;9.17;100.00;102422.44;11213485;26;20331;-66
2024/04/10 05:55:50;;;;;;;1999.90;999.90;;;;;;;9.28;100.00;102424.78;11182011;26;20072;-66
2024/04/10 06:00:52;;;;;;;1999.90;999.90;;;;;;;9.17;100.00;102432.03;11213145;26;20037;-66
2024/04/10 06:05:58;;;;;;;1999.90;999.90;;;;;;;8.82;100.00;102452.03;11212865;26;20072;-66
2024/04/10 06:11:00;;;;;;;1999.90;999.90;;;;;;;9.18;100.00;102459.88;11181819;26;20015;-66
2024/04/10 06:16:04;;;;;;;1999.90;999.90;;;;;;;9.12;100.00;102460.88;11212917;26;20039;-66
2024/04/10 06:21:07;;;;;;;1999.90;999.90;;;;;;;9.24;100.00;102471.03;11181582;26;20443;-66
2024/04/10 06:26:10;;;;;;;1999.90;999.90;;;;;;;9.09;100.00;102485.34;11212508;26;20454;-66
2024/04/10 06:31:13;;;;;;;1999.90;999.90;;;;;;;9.02;100.00;102498.59;11212186;26;20000;-66
2024/04/10 06:36:16;;;;;;;1999.90;999.90;;;;;;;9.18;100.00;102510.41;11211946;26;20039;-66
2024/04/10 06:41:18;;;;;;;1999.90;999.90;;;;;;;9.19;100.00;102516.47;11212105;26;20010;-66
2024/04/10 06:46:21;;;;;;;1999.90;999.90;;;;;;;9.53;100.00;102526.09;11211600;26;20346;-66
2024/04/10 06:51:24;;;;;;;1999.90;999.90;;;;;;;10.09;100.00;102534.22;11210252;26;20011;-66
2024/04/10 06:56:26;;;;;;;1999.90;999.90;;;;;;;9.86;100.00;102533.06;11211512;26;20017;-66
2024/04/10 07:01:29;;;;;;;1999.90;999.90;;;;;;;9.92;100.00;102532.06;11211602;26;19999;-66
2024/04/10 07:06:31;;;;;;;1999.90;999.90;;;;;;;9.70;100.00;102541.34;11211526;26;20010;-65
2024/04/10 07:11:34;;;;;;;1999.90;999.90;;;;;;;10.54;99.31;102551.28;11210971;26;20044;-65
2024/04/10 07:16:37;;;;;;;1999.90;999.90;;;;;;;10.42;96.61;102560.34;11210833;26;19999;-66
2024/04/10 07:21:41;;;;;;;1999.90;999.90;;;;;;;10.52;95.10;102558.34;11210498;26;20014;-66
2024/04/10 07:26:43;;;;;;;1999.90;999.90;;;;;;;10.41;93.05;102566.50;11210418;26;20000;-66
2024/04/10 07:31:46;;;;;;;1999.90;999.90;;;;;;;10.85;90.59;102566.97;11179580;26;20069;-66
2024/04/10 07:36:48;;;;;;;1999.90;999.90;;;;;;;10.88;88.86;102571.25;11210071;26;19999;-66
2024/04/10 07:41:51;;;;;;;1999.90;999.90;;;;;;;11.14;88.99;102562.56;11179766;26;20010;-67
2024/04/10 07:46:53;;;;;;;1999.90;999.90;;;;;;;12.02;82.44;102571.06;11209913;26;20010;-66
2024/04/10 07:51:56;;;;;;;1999.90;999.90;;;;;;;12.34;79.60;102570.78;11209724;26;20072;-66
2024/04/10 07:56:59;;;;;;;1999.90;999.90;;;;;;;12.36;78.99;102584.75;11209266;26;20008;-66
2024/04/10 08:02:01;;;;;;;1999.90;999.90;;;;;;;13.01;76.41;102591.91;11211747;26;20012;-66
2024/04/10 08:07:04;;;;;;;1999.90;999.90;;;;;;;13.47;76.19;102597.13;11216406;26;20338;-66
2024/04/10 08:12:07;;;;;;;1999.90;999.90;;;;;;;13.07;73.19;102603.09;11216298;26;20000;-66
2024/04/10 08:17:10;;;;;;;1999.90;999.90;;;;;;;13.18;70.09;102593.03;11185048;26;20007;-66
2024/04/10 08:22:14;;;;;;;1999.90;999.90;;;;;;;14.09;70.11;102598.03;11185319;26;20683;-66
2024/04/10 08:27:16;;;;;;;1999.90;999.90;;;;;;;13.78;70.32;102605.53;11215905;26;19999;-67
2024/04/10 08:32:19;;;;;;;1999.90;999.90;;;;;;;14.44;70.55;102610.53;11215814;26;20474;-67
2024/04/10 08:37:22;;;;;;;1999.90;999.90;;;;;;;14.91;68.93;102617.25;11215258;26;20007;-67
2024/04/10 08:42:28;;;;;;;1999.90;999.90;;;;;;;14.99;66.45;102620.38;11215577;26;20000;-67
2024/04/10 08:47:32;;;;;;;1999.90;999.90;;;;;;;13.17;69.78;102647.38;11184219;26;19999;-67
2024/04/10 08:52:36;;;;;;;1999.90;999.90;;;;;;;14.55;68.40;102641.72;11184060;26;20443;-67
2024/04/10 08:57:38;;;;;;;1999.90;999.90;;;;;;;14.24;67.46;102649.19;11184036;26;20343;-67
2024/04/10 09:02:41;;;;;;;1999.90;999.90;;;;;;;12.95;70.50;102660.50;11183792;26;19999;-67
2024/04/10 09:07:43;;;;;;;1999.90;999.90;;;;;;;12.99;71.81;102674.38;11184016;26;20026;-67
2024/04/10 09:12:48;;;;;;;1999.90;999.90;;;;;;;12.43;73.08;102678.16;11213512;26;20000;-67
2024/04/10 09:17:55;;;;;;;1999.90;999.90;;;;;;;12.60;75.04;102685.44;11214565;26;20011;-67
2024/04/10 09:23:01;;;;;;;1999.90;999.90;;;;;;;13.22;71.69;102688.44;11214363;26;19999;-67
2024/04/10 09:28:05;;;;;;;1999.90;999.90;;;;;;;14.72;67.41;102675.25;11214124;26;20014;-67
2024/04/10 09:33:08;;;;;;;1999.90;999.90;;;;;;;14.99;67.32;102692.44;11214125;26;20035;-67
2024/04/10 09:38:12;;;;;;;1999.90;999.90;;;;;;;16.40;64.83;102681.22;11182740;26;20011;-67
2024/04/10 09:43:17;;;;;;;1999.90;999.90;;;;;;;15.24;59.72;102683.41;11182610;26;20395;-67
2024/04/10 09:48:21;;;;;;;1999.90;999.90;;;;;;;14.65;65.98;102706.31;11182832;26;20000;-68
2024/04/10 09:53:24;;;;;;;1999.90;999.90;;;;;;;16.88;61.58;102686.66;11182276;26;20007;-68
2024/04/10 09:58:28;;;;;;;1999.90;999.90;;;;;;;17.91;58.46;102691.47;11182397;26;20327;-68
2024/04/10 10:03:31;;;;;;;1999.90;999.90;;;;;;;18.23;54.83;102672.81;11213263;26;20509;-68
2024/04/10 10:08:35;;;;;;;1999.90;999.90;;;;;;;17.94;55.59;102683.34;11212907;26;20031;-68
2024/04/10 10:13:41;;;;;;;1999.90;999.90;;;;;;;19.62;55.29;102675.59;11181968;26;20007;-68
2024/04/10 10:18:57;;;;;;;1999.90;999.90;;;;;;;18.13;52.89;102688.41;11213210;26;20033;-68
2024/04/10 10:24:03;;;;;;;1999.90;999.90;;;;;;;21.62;50.27;102682.06;11212236;26;19999;-68
2024/04/10 10:29:09;;;;;;;1999.90;999.90;;;;;;;20.22;49.28;102697.31;11181841;26;20011;-68
2024/04/10 10:34:23;;;;;;;1999.90;999.90;;;;;;;19.79;51.12;102692.25;11212433;26;20000;-68
2024/04/10 10:39:27;;;;;;;1999.90;999.90;;;;;;;18.80;51.98;102703.81;11211966;26;20015;-68
2024/04/10 10:44:29;;;;;;;1999.90;999.90;;;;;;;19.42;51.86;102697.31;11211761;26;20011;-68
2024/04/10 10:49:32;;;;;;;1999.90;999.90;;;;;;;20.64;48.03;102690.00;11180506;26;20466;-69
2024/04/10 10:54:35;;;;;;;1999.90;999.90;;;;;;;20.18;46.06;102694.03;11211504;26;20007;-69
2024/04/10 10:59:37;;;;;;;1999.90;999.90;;;;;;;21.40;43.97;102688.13;11180487;26;20048;-69
2024/04/10 11:04:40;;;;;;;1999.90;999.90;;;;;;;20.81;45.99;102693.28;11180157;26;20474;-68
2024/04/10 11:09:43;;;;;;;1999.90;999.90;;;;;;;22.12;40.49;102678.34;11151284;26;20004;-69
2024/04/10 11:14:45;;;;;;;1999.90;999.90;;;;;;;22.14;44.06;102690.59;11180019;26;19999;-69
2024/04/10 11:19:48;;;;;;;1999.90;999.90;;;;;;;23.07;41.83;102686.91;11210948;26;20035;-69
2024/04/10 11:24:54;;;;;;;1999.90;999.90;;;;;;;24.38;41.20;102681.31;11152820;26;20007;-69
2024/04/10 11:29:56;;;;;;;1999.90;999.90;;;;;;;21.55;40.52;102682.63;11150326;26;20432;-69
2024/04/10 11:34:59;;;;;;;1999.90;999.90;;;;;;;23.84;39.58;102674.38;11209772;26;20007;-69
2024/04/10 11:40:01;;;;;;;1999.90;999.90;;;;;;;18.94;42.93;102685.25;11209711;26;20451;-69
2024/04/10 11:45:07;;;;;;;1999.90;999.90;;;;;;;22.16;40.99;102702.00;11179054;26;20000;-69
2024/04/10 11:50:15;;;;;;;1999.90;999.90;;;;;;;20.74;43.27;102712.34;11179160;26;20456;-69
2024/04/10 11:55:18;;;;;;;1999.90;999.90;;;;;;;18.46;45.64;102735.06;11179933;26;20013;-69
2024/04/10 12:00:20;;;;;;;1999.90;999.90;;;;;;;21.94;42.91;102724.13;11178440;26;20428;-69
2024/04/10 12:05:24;;;;;;;1999.90;999.90;;;;;;;21.17;43.78;102713.78;11178663;26;20008;-69
2024/04/10 12:10:28;;;;;;;1999.90;999.90;;;;;;;20.22;43.07;102723.91;11178248;26;20000;-69
2024/04/10 12:15:30;;;;;;;1999.90;999.90;;;;;;;21.21;42.75;102712.56;11208504;26;19999;-69
2024/04/10 12:20:33;;;;;;;1999.90;999.90;;;;;;;21.56;43.56;102714.50;11209157;26;20007;-69
2024/04/10 12:25:36;;;;;;;1999.90;999.90;;;;;;;22.90;44.36;102712.28;11177634;26;20000;-69
2024/04/10 12:30:39;;;;;;;1999.90;999.90;;;;;;;23.74;37.30;102682.31;11177351;26;20000;-69
2024/04/10 12:41:05;;;;;;;1999.90;999.90;;;;;;;22.93;41.08;102714.69;11181552;26;20412;-69
2024/04/10 12:46:08;;;;;;;1999.90;999.90;;;;;;;23.03;36.59;102692.56;11178187;26;20000;-69
2024/04/10 12:51:11;;;;;;;1999.90;999.90;;;;;;;21.10;40.01;102697.38;11183861;26;20478;-69
2024/04/10 12:56:13;;;;;;;1999.90;999.90;;;;;;;20.86;41.41;102718.59;11214922;26;20000;-69
2024/04/10 13:01:16;;;;;;;1999.90;999.90;;;;;;;18.34;41.71;102714.59;11183950;26;19999;-69
2024/04/10 13:06:21;;;;;;;1999.90;999.90;;;;;;;18.60;41.10;102720.13;11214813;26;19999;-69
2024/04/10 13:11:24;;;;;;;1999.90;999.90;;;;;;;19.60;43.01;102725.34;11214819;26;20027;-69
2024/04/10 13:16:26;;;;;;;1999.90;999.90;;;;;;;20.05;40.82;102717.06;11214604;26;20013;-69
2024/04/10 13:21:29;;;;;;;1999.90;999.90;;;;;;;21.57;41.42;102710.88;11183619;26;19999;-69
2024/04/10 13:26:31;;;;;;;1999.90;999.90;;;;;;;22.91;38.37;102705.94;11214459;26;20000;-70
2024/04/10 13:31:34;;;;;;;1999.90;999.90;;;;;;;20.16;42.76;102721.69;11183437;26;19999;-69
2024/04/10 13:36:36;;;;;;;1999.90;999.90;;;;;;;21.97;37.97;102718.56;11214427;26;20454;-69
2024/04/10 13:41:39;;;;;;;1999.90;999.90;;;;;;;23.72;37.15;102693.13;11213918;26;19999;-69
2024/04/10 13:46:42;;;;;;;1999.90;999.90;;;;;;;23.34;37.49;102723.03;11213634;26;20077;-69
2024/04/10 13:51:44;;;;;;;1999.90;999.90;;;;;;;20.11;37.84;102723.81;11213271;26;19999;-69
2024/04/10 13:56:47;;;;;;;1999.90;999.90;;;;;;;22.55;36.21;102712.41;11213095;26;20342;-69
2024/04/10 14:01:49;;;;;;;1999.90;999.90;;;;;;;20.23;38.98;102704.34;11212386;26;20010;-69
2024/04/10 14:06:52;;;;;;;1999.90;999.90;;;;;;;22.41;37.15;102714.31;11182084;26;20014;-69
2024/04/10 14:11:54;;;;;;;1999.90;999.90;;;;;;;21.34;38.47;102710.72;11212872;26;20451;-69
2024/04/10 14:16:57;;;;;;;1999.90;999.90;;;;;;;23.11;36.24;102687.50;11212566;26;20463;-69
2024/04/10 14:22:12;;;;;;;1999.90;999.90;;;;;;;22.69;36.05;102684.59;11212812;26;20000;-69
2024/04/10 14:27:14;;;;;;;1999.90;999.90;;;;;;;20.26;37.19;102719.22;11212202;26;20039;-69
2024/04/10 14:32:17;;;;;;;1999.90;999.90;;;;;;;22.66;33.73;102707.03;11212299;26;20338;-69
2024/04/10 14:37:19;;;;;;;1999.90;999.90;;;;;;;22.43;35.36;102716.88;11211942;26;20000;-69
2024/04/10 14:42:22;;;;;;;1999.90;999.90;;;;;;;23.55;35.97;102701.69;11212155;26;20035;-68
2024/04/10 14:47:25;;;;;;;1999.90;999.90;;;;;;;23.62;33.13;102694.00;11211736;26;20014;-69
2024/04/10 14:52:27;;;;;;;1999.90;999.90;;;;;;;23.45;33.93;102704.31;11211703;26;20346;-69
2024/04/10 14:57:30;;;;;;;1999.90;999.90;;;;;;;24.60;33.26;102700.91;11211115;26;20424;-68
2024/04/10 15:02:38;;;;;;;1999.90;999.90;;;;;;;23.62;30.55;102684.19;11181905;26;20000;-69
2024/04/10 15:07:40;;;;;;;1999.90;999.90;;;;;;;24.04;33.45;102691.41;11211306;26;20010;-68
2024/04/10 15:12:43;;;;;;;1999.90;999.90;;;;;;;21.85;34.22;102690.97;11209477;26;19999;-68
2024/04/10 15:17:45;;;;;;;1999.90;999.90;;;;;;;22.39;32.25;102668.22;11210831;26;20004;-69
2024/04/10 15:22:49;;;;;;;1999.90;999.90;;;;;;;22.60;35.47;102692.38;11210536;26;20049;-68
2024/04/10 15:27:51;;;;;;;1999.90;999.90;;;;;;;21.62;36.50;102695.41;11210623;26;20000;-68
2024/04/10 15:34:27;;;;;;;;;;;;;;;21.45;33.69;102685.97;11323987;26;20344;-68
2024/04/10 15:39:30;;;;;;;1999.90;999.90;;;;;;;22.75;34.46;102679.63;11259830;20;19925;-67
2024/04/10 15:44:32;;;;;;;1999.90;999.90;;;;;;;22.06;35.19;102683.19;11174637;26;20446;-67
2024/04/10 15:49:35;;;;;;;1999.90;999.90;;;;;;;20.69;34.64;102692.34;11174406;26;20547;-67
2024/04/10 15:54:37;;;;;;;1999.90;999.90;;;;;;;21.21;36.58;102707.25;11172543;26;20000;-67
2024/04/10 15:59:41;;;;;;;1999.90;999.90;;;;;;;20.90;35.98;102700.63;11174333;26;20006;-67
2024/04/10 16:04:44;;;;;;;1999.90;999.90;;;;;;;21.43;35.41;102692.34;11172674;26;20000;-67
2024/04/10 16:09:47;;;;;;;1999.90;999.90;;;;;;;20.83;40.40;102708.22;11173898;26;20000;-67
2024/04/10 16:14:50;;;;;;;1999.90;999.90;;;;;;;20.32;37.12;102694.88;11173569;26;20413;-67
2024/04/10 16:19:52;;;;;;;1999.90;999.90;;;;;;;19.87;37.02;102697.91;11173412;26;20011;-67
2024/04/10 16:24:55;;;;;;;1999.90;999.90;;;;;;;19.82;36.15;102686.72;11171798;26;20044;-67
2024/04/10 16:29:57;;;;;;;1999.90;999.90;;;;;;;19.77;37.35;102699.47;11173122;26;20000;-67
2024/04/10 16:35:00;;;;;;;1999.90;999.90;;;;;;;18.56;39.15;102695.59;11173147;26;19999;-67
2024/04/10 16:40:02;;;;;;;1999.90;999.90;;;;;;;18.90;39.80;102699.69;11172901;26;20000;-67
2024/04/10 16:45:06;;;;;;;1999.90;999.90;;;;;;;18.50;37.99;102698.59;11144882;26;20015;-67
2024/04/10 16:50:09;;;;;;;1999.90;999.90;;;;;;;17.50;39.11;102699.13;11141118;26;20000;-67
2024/04/10 16:55:11;;;;;;;1999.90;999.90;;;;;;;18.36;40.52;102710.06;11141116;26;20332;-67
2024/04/10 17:00:14;;;;;;;1999.90;999.90;;;;;;;17.27;38.96;102706.56;11141147;26;20008;-67
2024/04/10 17:05:16;;;;;;;1999.90;999.90;;;;;;;17.40;40.25;102722.63;11140947;26;20012;-67
2024/04/10 17:10:19;;;;;;;1999.90;999.90;;;;;;;16.51;39.57;102707.94;11140864;26;20011;-66
2024/04/10 17:15:21;;;;;;;1999.90;999.90;;;;;;;17.12;40.91;102721.50;11140479;26;20036;-67
2024/04/10 17:25:57;;;;;;;1999.90;999.90;;;;;;;16.41;43.01;102737.56;11140273;26;20078;-67
2024/04/10 17:31:03;;;;;;;1999.90;999.90;;;;;;;16.55;44.48;102745.66;11140490;26;20000;-67
2024/04/10 17:36:08;;;;;;;1999.90;999.90;;;;;;;16.25;44.38;102763.94;11138692;26;20000;-67
2024/04/10 17:41:11;;;;;;;1999.90;999.90;;;;;;;15.23;43.79;102768.75;11139859;26;20012;-67
2024/04/10 17:46:15;;;;;;;1999.90;999.90;;;;;;;15.48;45.33;102771.09;11139849;26;20000;-67
2024/04/10 17:51:18;;;;;;;1999.90;999.90;;;;;;;14.56;49.62;102809.47;11139542;26;20469;-67
2024/04/10 17:56:20;;;;;;;1999.90;999.90;;;;;;;13.98;50.74;102805.66;11139743;26;20000;-67
2024/04/10 18:01:23;;;;;;;1999.90;999.90;;;;;;;14.47;48.47;102797.53;11139453;26;20008;-67
2024/04/10 18:06:25;;;;;;;1999.90;999.90;;;;;;;13.45;54.12;102809.47;11139294;26;20000;-67
2024/04/10 18:11:28;;;;;;;1999.90;999.90;;;;;;;13.24;54.50;102816.34;11139571;26;20000;-67
2024/04/10 18:16:31;;;;;;;1999.90;999.90;;;;;;;12.99;54.32;102811.97;11138836;26;20033;-67
2024/04/10 18:21:36;;;;;;;1999.90;999.90;;;;;;;12.80;57.23;102787.25;11138932;26;20451;-67
2024/04/10 18:26:38;;;;;;;1999.90;999.90;;;;;;;12.21;59.18;102773.44;11138529;26;19996;-67
2024/04/10 18:31:41;;;;;;;1999.90;999.90;;;;;;;12.06;61.51;102768.69;11138388;26;20002;-67
2024/04/10 18:36:43;;;;;;;1999.90;999.90;;;;;;;12.27;60.99;102744.38;11138415;26;20000;-67
2024/04/10 18:41:46;;;;;;;1999.90;999.90;;;;;;;11.83;63.67;102753.66;11136898;26;19996;-67
2024/04/10 18:46:48;;;;;;;1999.90;999.90;;;;;;;11.68;63.91;102770.72;11138030;26;20447;-67
2024/04/10 18:51:52;;;;;;;1999.90;999.90;;;;;;;11.23;65.47;102769.44;11137655;26;20015;-67
2024/04/10 18:56:55;;;;;;;1999.90;999.90;;;;;;;11.07;66.97;102792.59;11137856;26;20000;-67
2024/04/10 19:01:57;;;;;;;1999.90;999.90;;;;;;;10.94;66.72;102793.81;11135630;26;20047;-66
2024/04/10 19:07:00;;;;;;;1999.90;999.90;;;;;;;10.78;66.75;102809.97;11136550;26;20041;-67
2024/04/10 19:12:03;;;;;;;1999.90;999.90;;;;;;;10.72;67.66;102822.34;11136889;26;20011;-67
2024/04/10 19:17:06;;;;;;;1999.90;999.90;;;;;;;10.35;68.83;102823.28;11136758;26;20015;-67
2024/04/10 19:22:08;;;;;;;1999.90;999.90;;;;;;;10.26;69.33;102829.56;11137061;26;20004;-67
2024/04/10 19:27:11;;;;;;;1999.90;999.90;;;;;;;10.27;71.50;102830.41;11136758;26;20045;-66
2024/04/10 19:32:14;;;;;;;1999.90;999.90;;;;;;;10.04;72.38;102829.19;11136791;26;20008;-67
2024/04/10 19:37:17;;;;;;;1999.90;999.90;;;;;;;10.22;71.29;102833.13;11136469;26;20037;-67
2024/04/10 19:42:23;;;;;;;1999.90;999.90;;;;;;;10.17;72.21;102817.56;11136211;26;20346;-67
2024/04/10 19:47:26;;;;;;;1999.90;999.90;;;;;;;9.97;73.86;102809.28;11135520;26;20039;-66
2024/04/10 19:52:29;;;;;;;1999.90;999.90;;;;;;;10.24;70.90;102818.28;11135697;26;20015;-66
2024/04/10 19:57:31;;;;;;;1999.90;999.90;;;;;;;9.99;72.90;102804.91;11134212;26;20017;-67
2024/04/10 20:02:34;;;;;;;1999.90;999.90;;;;;;;9.84;73.59;102803.47;11133808;26;20004;-66
2024/04/10 20:07:37;;;;;;;1999.90;999.90;;;;;;;9.49;73.47;102803.31;11135322;26;20008;-67
2024/04/10 20:12:39;;;;;;;1999.90;999.90;;;;;;;9.47;74.66;102812.13;11134823;26;20000;-67
2024/04/10 20:17:42;;;;;;;1999.90;999.90;;;;;;;9.64;75.21;102807.38;11136928;26;20010;-66
2024/04/10 20:22:44;;;;;;;1999.90;999.90;;;;;;;9.38;76.25;102804.44;11142031;26;20000;-66
2024/04/10 20:27:47;;;;;;;1999.90;999.90;;;;;;;9.30;77.51;102810.69;11140324;26;20000;-66
2024/04/10 20:32:50;;;;;;;1999.90;999.90;;;;;;;9.46;77.01;102792.97;11141703;26;19996;-66
2024/04/10 20:37:52;;;;;;;1999.90;999.90;;;;;;;9.62;78.06;102787.41;11141548;26;20011;-66
2024/04/10 20:43:06;;;;;;;1999.90;999.90;;;;;;;9.41;78.71;102788.69;11141882;26;20004;-66
2024/04/10 20:48:09;;;;;;;1999.90;999.90;;;;;;;9.38;78.24;102781.78;11141563;26;20451;-66
2024/04/10 20:53:12;;;;;;;1999.90;999.90;;;;;;;9.36;77.53;102775.72;11141234;26;20015;-66
2024/04/10 20:58:14;;;;;;;1999.90;999.90;;;;;;;9.43;78.99;102787.78;11141113;26;20010;-66
2024/04/10 21:03:17;;;;;;;1999.90;999.90;;;;;;;9.42;78.10;102790.44;11140990;26;20004;-66
2024/04/10 22:12:35;;;;;;;;;;;;;;;10.58;69.42;102794.75;11139547;26;20011;-66
2024/04/10 22:28:22;;;;;;;1999.90;999.90;;;;;;;10.86;70.30;102769.56;11138530;26;20011;-66
2024/04/10 22:33:25;;;;;;;1999.90;999.90;;;;;;;10.89;70.25;102764.25;11137033;26;20466;-66
2024/04/10 22:38:28;;;;;;;1999.90;999.90;;;;;;;10.63;69.60;102771.06;11138080;26;20339;-66
2024/04/10 22:43:30;;;;;;;1999.90;999.90;;;;;;;10.67;71.15;102751.72;11136663;26;20040;-66
2024/04/10 22:48:33;;;;;;;1999.90;999.90;;;;;;;10.60;70.62;102761.50;11137863;26;20014;-66
2024/04/10 22:53:36;;;;;;;1999.90;999.90;;;;;;;10.70;71.26;102763.91;11136197;26;20001;-66
2024/04/10 22:58:38;;;;;;;1999.90;999.90;;;;;;;10.61;70.70;102780.72;11137580;26;20011;-66
2024/04/10 23:03:40;;;;;;;1999.90;999.90;;;;;;;10.65;72.02;102766.63;11137493;26;20055;-66
2024/04/10 23:08:43;;;;;;;1999.90;999.90;;;;;;;10.74;69.00;102766.41;11137360;26;20004;-66
2024/04/10 23:13:46;;;;;;;1999.90;999.90;;;;;;;10.66;69.90;102764.88;11136721;26;20004;-66
2024/04/10 23:18:48;;;;;;;1999.90;999.90;;;;;;;10.74;69.73;102786.50;11136943;26;20007;-66
2024/04/10 23:24:11;;;;;;;1999.90;999.90;;;;;;;10.59;70.28;102786.00;11135645;26;20004;-66
2024/04/10 23:29:13;;;;;;;1999.90;999.90;;;;;;;10.47;71.31;102782.81;11137059;26;20487;-66